Time;durP1;ratioP1;P1;durP2;ratioP2;P2;SDS_P1;SDS_P2;PMS_P1;PMS_P2;Temp;Humidity;BMP_temperature;BMP_pressure;BME280_temperature;BME280_humidity;BME280_pressure;Samples;Min_cycle;Max_cycle;Signal;HPM_P1;HPM_P2
2022/04/08 00:01:30;;;;;;;;;1.00;0.75;;;;;;;;5073257;28;45449;-60
2022/04/08 00:03:56;;;;;;;;;0.00;0.00;;;;;;;;5075608;28;45385;-58
2022/04/08 00:06:21;;;;;;;;;0.00;0.00;;;;;;;;5077704;27;47331;-59
2022/04/08 00:08:47;;;;;;;;;1.25;1.00;;;;;;;;5075716;27;45404;-60
2022/04/08 00:11:13;;;;;;;;;1.00;0.00;;;;;;;;5075708;27;45515;-60
2022/04/08 00:13:38;;;;;;;;;0.00;0.00;;;;;;;;5074692;28;45728;-60
2022/04/08 00:16:04;;;;;;;;;0.75;0.00;;;;;;;;5075806;27;46371;-59
2022/04/08 00:18:30;;;;;;;;;0.00;0.00;;;;;;;;5076255;27;45392;-60
2022/04/08 00:20:56;;;;;;;;;1.50;0.50;;;;;;;;5075759;27;45458;-60
2022/04/08 00:23:21;;;;;;;;;1.00;1.00;;;;;;;;5075831;27;45377;-59
2022/04/08 00:25:46;;;;;;;;;0.00;0.00;;;;;;;;5074325;28;48553;-60
2022/04/08 00:28:11;;;;;;;;;1.00;0.00;;;;;;;;5059434;28;45369;-60
2022/04/08 00:30:36;;;;;;;;;0.00;0.00;;;;;;;;5077783;27;45355;-60
2022/04/08 00:33:02;;;;;;;;;1.00;0.00;;;;;;;;5072739;27;45518;-60
2022/04/08 00:35:27;;;;;;;;;0.00;0.00;;;;;;;;5074817;27;46284;-60
2022/04/08 00:37:52;;;;;;;;;0.00;0.00;;;;;;;;5075273;27;45343;-60
2022/04/08 00:40:17;;;;;;;;;0.00;0.00;;;;;;;;5073147;27;45372;-60
2022/04/08 00:42:43;;;;;;;;;0.00;0.00;;;;;;;;5077923;27;45674;-59
2022/04/08 00:45:11;;;;;;;;;0.75;0.75;;;;;;;;5075254;27;46375;-60
2022/04/08 00:47:40;;;;;;;;;0.00;0.00;;;;;;;;5073798;27;47151;-59
2022/04/08 00:50:06;;;;;;;;;2.00;0.00;;;;;;;;5075259;27;45495;-60
2022/04/08 00:52:33;;;;;;;;;3.00;0.00;;;;;;;;5074691;27;45504;-59
2022/04/08 00:54:58;;;;;;;;;1.25;0.75;;;;;;;;5076946;27;47119;-59
2022/04/08 00:57:23;;;;;;;;;1.00;0.00;;;;;;;;5075646;27;45366;-60
2022/04/08 00:59:49;;;;;;;;;1.00;0.00;;;;;;;;5075383;27;45381;-60
2022/04/08 01:02:15;;;;;;;;;0.00;0.00;;;;;;;;5075319;27;45309;-60
2022/04/08 01:04:40;;;;;;;;;1.00;0.00;;;;;;;;5074951;27;45573;-61
2022/04/08 01:07:05;;;;;;;;;0.25;0.25;;;;;;;;5075024;27;45330;-60
2022/04/08 01:09:31;;;;;;;;;0.50;0.00;;;;;;;;5076147;28;45419;-60
2022/04/08 01:11:56;;;;;;;;;1.50;0.00;;;;;;;;5075075;27;45439;-61
2022/04/08 01:14:21;;;;;;;;;0.00;0.00;;;;;;;;5074005;27;48236;-59
2022/04/08 01:16:46;;;;;;;;;0.00;0.00;;;;;;;;5075406;27;45355;-59
2022/04/08 01:19:12;;;;;;;;;0.50;0.50;;;;;;;;5074405;28;45308;-60
2022/04/08 01:21:37;;;;;;;;;0.50;0.00;;;;;;;;5076832;28;45660;-60
2022/04/08 01:24:02;;;;;;;;;1.00;0.00;;;;;;;;5073377;28;46618;-60
2022/04/08 01:26:28;;;;;;;;;0.00;0.00;;;;;;;;5073355;28;45504;-60
2022/04/08 01:28:54;;;;;;;;;0.00;0.00;;;;;;;;5074687;27;45303;-60
2022/04/08 01:31:19;;;;;;;;;0.25;0.00;;;;;;;;5074885;27;45514;-60
2022/04/08 01:33:44;;;;;;;;;0.00;0.00;;;;;;;;5076527;27;46202;-61
2022/04/08 01:36:10;;;;;;;;;1.75;0.00;;;;;;;;5075067;28;45453;-60
2022/04/08 01:38:35;;;;;;;;;0.50;0.00;;;;;;;;5074517;27;45363;-60
2022/04/08 01:41:01;;;;;;;;;1.25;0.00;;;;;;;;5074543;27;45466;-60
2022/04/08 01:43:26;;;;;;;;;0.50;0.00;;;;;;;;5073105;27;47274;-60
2022/04/08 01:45:51;;;;;;;;;0.00;0.00;;;;;;;;5075632;28;45418;-60
2022/04/08 01:48:17;;;;;;;;;0.25;0.25;;;;;;;;5075531;28;45472;-59
2022/04/08 01:50:42;;;;;;;;;1.75;0.75;;;;;;;;5072832;27;45508;-60
2022/04/08 01:53:08;;;;;;;;;1.00;0.00;;;;;;;;5072827;28;47898;-59
2022/04/08 01:55:33;;;;;;;;;3.50;0.25;;;;;;;;5073092;27;45749;-60
2022/04/08 01:57:58;;;;;;;;;4.00;1.00;;;;;;;;5073849;27;45363;-60
2022/04/08 02:00:23;;;;;;;;;0.00;0.00;;;;;;;;5072618;27;45289;-60
2022/04/08 02:02:49;;;;;;;;;1.50;0.75;;;;;;;;5072803;28;49632;-60
2022/04/08 02:05:14;;;;;;;;;0.00;0.00;;;;;;;;5074016;27;45381;-60
2022/04/08 02:07:39;;;;;;;;;0.25;0.00;;;;;;;;5074472;28;45448;-60
2022/04/08 02:10:05;;;;;;;;;3.00;0.00;;;;;;;;5072680;28;45498;-60
2022/04/08 02:12:31;;;;;;;;;0.25;0.00;;;;;;;;5075850;27;46968;-60
2022/04/08 02:14:56;;;;;;;;;1.00;0.00;;;;;;;;5071642;28;45522;-60
2022/04/08 02:17:25;;;;;;;;;0.00;0.00;;;;;;;;5073916;27;45553;-60
2022/04/08 02:19:50;;;;;;;;;0.75;0.75;;;;;;;;5073974;27;45177;-60
2022/04/08 02:22:15;;;;;;;;;0.75;0.00;;;;;;;;5073946;27;46461;-60
2022/04/08 02:24:40;;;;;;;;;0.00;0.00;;;;;;;;5076000;27;45530;-60
2022/04/08 02:27:06;;;;;;;;;0.00;0.00;;;;;;;;5072176;28;45389;-60
2022/04/08 02:29:34;;;;;;;;;0.50;0.50;;;;;;;;5072859;27;45469;-60
2022/04/08 02:32:00;;;;;;;;;0.75;0.75;;;;;;;;5073430;28;46560;-60
2022/04/08 02:34:25;;;;;;;;;0.00;0.00;;;;;;;;5073721;27;45231;-59
2022/04/08 02:36:50;;;;;;;;;0.00;0.00;;;;;;;;5073748;28;45309;-59
2022/04/08 02:39:16;;;;;;;;;1.50;0.50;;;;;;;;5073310;27;45417;-60
2022/04/08 02:41:41;;;;;;;;;0.00;0.00;;;;;;;;5073561;27;46338;-61
2022/04/08 02:44:08;;;;;;;;;1.00;1.00;;;;;;;;5073583;27;45229;-60
2022/04/08 02:46:34;;;;;;;;;0.00;0.00;;;;;;;;5073749;27;45408;-60
2022/04/08 02:48:59;;;;;;;;;1.25;1.00;;;;;;;;5073725;27;45475;-60
2022/04/08 02:51:24;;;;;;;;;0.00;0.00;;;;;;;;5074361;27;46167;-60
2022/04/08 02:53:50;;;;;;;;;0.25;0.25;;;;;;;;5071898;27;45404;-60
2022/04/08 02:56:15;;;;;;;;;1.00;0.00;;;;;;;;5073596;27;45475;-60
2022/04/08 02:58:40;;;;;;;;;0.00;0.00;;;;;;;;5073523;27;45416;-60
2022/04/08 03:01:06;;;;;;;;;0.00;0.00;;;;;;;;5073219;27;45188;-60
2022/04/08 03:03:31;;;;;;;;;0.75;0.00;;;;;;;;5075400;27;45332;-59
2022/04/08 03:05:57;;;;;;;;;0.00;0.00;;;;;;;;5073385;27;45518;-57
2022/04/08 03:08:22;;;;;;;;;1.50;0.50;;;;;;;;5073320;28;45264;-60
2022/04/08 03:10:47;;;;;;;;;1.75;0.75;;;;;;;;5072782;27;45648;-60
2022/04/08 03:13:12;;;;;;;;;1.75;0.00;;;;;;;;5056969;28;45225;-58
2022/04/08 03:15:39;;;;;;;;;0.75;0.00;;;;;;;;5075498;27;45404;-59
2022/04/08 03:18:04;;;;;;;;;1.00;0.75;;;;;;;;5071684;27;45532;-58
2022/04/08 03:20:30;;;;;;;;;2.00;1.00;;;;;;;;5072920;27;46292;-59
2022/04/08 03:22:55;;;;;;;;;0.00;0.00;;;;;;;;5073234;28;45503;-59
2022/04/08 03:25:20;;;;;;;;;0.50;0.50;;;;;;;;5073560;27;45563;-59
2022/04/08 03:27:45;;;;;;;;;1.00;1.00;;;;;;;;5076241;27;45473;-59
2022/04/08 03:30:11;;;;;;;;;2.50;0.00;;;;;;;;5075728;28;45694;-59
2022/04/08 03:32:36;;;;;;;;;0.00;0.00;;;;;;;;5074856;27;45510;-60
2022/04/08 03:35:01;;;;;;;;;0.25;0.25;;;;;;;;5076766;27;45341;-59
2022/04/08 03:37:27;;;;;;;;;2.00;0.00;;;;;;;;5076613;27;45457;-59
2022/04/08 03:39:53;;;;;;;;;0.00;0.00;;;;;;;;5077619;27;46420;-59
2022/04/08 03:42:18;;;;;;;;;0.25;0.25;;;;;;;;5077539;27;45479;-59
2022/04/08 03:44:43;;;;;;;;;0.25;0.00;;;;;;;;5076211;27;45464;-59
2022/04/08 03:47:09;;;;;;;;;0.00;0.00;;;;;;;;5076484;28;45368;-59
2022/04/08 03:49:36;;;;;;;;;1.00;0.00;;;;;;;;5076228;27;45509;-59
2022/04/08 03:52:03;;;;;;;;;1.00;0.00;;;;;;;;5076041;27;45487;-59
2022/04/08 03:54:28;;;;;;;;;0.00;0.00;;;;;;;;5078434;27;45409;-59
2022/04/08 03:56:53;;;;;;;;;0.00;0.00;;;;;;;;5073489;27;45364;-59
2022/04/08 03:59:21;;;;;;;;;0.00;0.00;;;;;;;;5076097;27;45431;-59
2022/04/08 04:01:47;;;;;;;;;0.00;0.00;;;;;;;;5074654;27;45374;-58
2022/04/08 04:04:12;;;;;;;;;0.00;0.00;;;;;;;;5074639;28;45399;-58
2022/04/08 04:06:37;;;;;;;;;1.00;0.00;;;;;;;;5078188;27;45348;-58
2022/04/08 04:09:03;;;;;;;;;1.25;1.25;;;;;;;;5074380;28;47037;-59
2022/04/08 04:11:28;;;;;;;;;0.25;0.00;;;;;;;;5074104;27;45407;-59
2022/04/08 04:13:53;;;;;;;;;0.50;0.50;;;;;;;;5074431;27;45322;-59
2022/04/08 04:16:18;;;;;;;;;1.50;0.00;;;;;;;;5076058;27;45281;-59
2022/04/08 04:18:44;;;;;;;;;1.50;0.25;;;;;;;;5078105;27;45383;-59
2022/04/08 04:21:09;;;;;;;;;1.00;0.00;;;;;;;;5073181;28;46128;-59
2022/04/08 04:23:34;;;;;;;;;2.00;0.00;;;;;;;;5075702;27;45510;-60
2022/04/08 04:26:00;;;;;;;;;0.00;0.00;;;;;;;;5074294;27;45416;-59
2022/04/08 04:28:28;;;;;;;;;1.00;1.00;;;;;;;;5074140;28;47284;-59
2022/04/08 04:30:53;;;;;;;;;0.00;0.00;;;;;;;;5076550;28;45443;-59
2022/04/08 04:33:19;;;;;;;;;1.25;1.25;;;;;;;;5076958;27;45458;-60
2022/04/08 04:35:44;;;;;;;;;3.00;1.25;;;;;;;;5074240;27;45524;-63
2022/04/08 04:38:09;;;;;;;;;1.00;1.00;;;;;;;;5074766;27;46034;-58
2022/04/08 04:40:34;;;;;;;;;0.75;0.75;;;;;;;;5076312;27;45436;-59
2022/04/08 04:43:00;;;;;;;;;2.00;1.00;;;;;;;;5077241;27;45509;-58
2022/04/08 04:45:25;;;;;;;;;1.50;1.25;;;;;;;;5077464;27;45595;-59
2022/04/08 04:47:50;;;;;;;;;1.00;0.75;;;;;;;;5075309;27;46422;-59
2022/04/08 04:50:16;;;;;;;;;0.50;0.25;;;;;;;;5073443;28;45332;-60
2022/04/08 04:52:41;;;;;;;;;0.00;0.00;;;;;;;;5075640;27;45398;-60
2022/04/08 04:55:07;;;;;;;;;4.50;1.00;;;;;;;;5075259;27;45477;-60
2022/04/08 04:57:32;;;;;;;;;2.50;1.00;;;;;;;;5076849;27;45786;-60
2022/04/08 04:59:57;;;;;;;;;3.75;2.50;;;;;;;;5073619;27;45710;-59
2022/04/08 05:02:22;;;;;;;;;0.00;0.00;;;;;;;;5075149;27;45700;-59
2022/04/08 05:04:48;;;;;;;;;1.00;1.00;;;;;;;;5075299;27;45460;-59
2022/04/08 05:07:13;;;;;;;;;0.00;0.00;;;;;;;;5075269;27;46165;-59
2022/04/08 05:09:39;;;;;;;;;0.00;0.00;;;;;;;;5076948;27;45500;-59
2022/04/08 05:12:05;;;;;;;;;3.25;0.00;;;;;;;;5074916;27;45569;-59
2022/04/08 05:14:30;;;;;;;;;3.00;1.00;;;;;;;;5073446;27;45491;-59
2022/04/08 05:16:58;;;;;;;;;1.00;1.00;;;;;;;;5074892;27;47802;-59
2022/04/08 05:19:23;;;;;;;;;0.75;0.75;;;;;;;;5073623;27;45552;-59
2022/04/08 05:21:48;;;;;;;;;1.75;0.50;;;;;;;;5074685;28;45354;-61
2022/04/08 05:24:13;;;;;;;;;1.00;0.00;;;;;;;;5074380;28;45287;-60
2022/04/08 05:26:38;;;;;;;;;0.00;0.00;;;;;;;;5074781;27;45407;-59
2022/04/08 05:29:04;;;;;;;;;0.00;0.00;;;;;;;;5072511;27;45304;-58
2022/04/08 05:31:29;;;;;;;;;3.00;0.75;;;;;;;;5073350;27;45307;-59
2022/04/08 05:33:54;;;;;;;;;2.00;1.00;;;;;;;;5075325;27;45394;-59
2022/04/08 05:36:19;;;;;;;;;0.00;0.00;;;;;;;;5075989;27;46712;-59
2022/04/08 05:38:45;;;;;;;;;3.00;0.00;;;;;;;;5072690;27;45362;-59
2022/04/08 05:41:10;;;;;;;;;1.00;1.00;;;;;;;;5071768;27;45246;-61
2022/04/08 05:43:35;;;;;;;;;0.75;0.75;;;;;;;;5062296;28;45636;-60
2022/04/08 05:46:01;;;;;;;;;1.50;1.50;;;;;;;;5055308;28;46025;-61
2022/04/08 05:48:26;;;;;;;;;3.50;2.50;;;;;;;;5067134;28;45501;-60
2022/04/08 05:50:51;;;;;;;;;2.50;1.50;;;;;;;;5064116;28;45508;-60
2022/04/08 05:53:16;;;;;;;;;3.50;2.50;;;;;;;;5059314;27;45472;-61
2022/04/08 05:55:42;;;;;;;;;3.00;1.00;;;;;;;;5064082;28;47602;-61
2022/04/08 05:58:08;;;;;;;;;2.00;1.75;;;;;;;;5041088;28;45387;-60
2022/04/08 06:00:35;;;;;;;;;1.00;1.00;;;;;;;;5059598;28;45582;-60
2022/04/08 06:03:00;;;;;;;;;1.75;0.75;;;;;;;;5069409;27;45743;-60
2022/04/08 06:05:26;;;;;;;;;1.00;1.00;;;;;;;;5072326;28;46747;-60
2022/04/08 06:07:52;;;;;;;;;1.00;1.00;;;;;;;;5060520;28;45257;-60
2022/04/08 06:10:22;;;;;;;;;1.00;1.00;;;;;;;;5066206;28;45456;-59
2022/04/08 06:12:51;;;;;;;;;1.00;1.00;;;;;;;;5069570;27;45308;-60
2022/04/08 06:15:16;;;;;;;;;1.00;1.00;;;;;;;;5068422;28;47820;-60
2022/04/08 06:17:42;;;;;;;;;1.00;1.00;;;;;;;;5074006;27;45494;-60
2022/04/08 06:20:09;;;;;;;;;2.25;1.00;;;;;;;;5070585;28;45465;-60
2022/04/08 06:22:35;;;;;;;;;3.00;3.00;;;;;;;;5067342;28;45387;-60
2022/04/08 06:25:00;;;;;;;;;1.00;1.00;;;;;;;;5058757;27;47823;-60
2022/04/08 06:27:25;;;;;;;;;1.00;1.00;;;;;;;;5059760;27;45644;-61
2022/04/08 06:29:51;;;;;;;;;0.00;0.00;;;;;;;;5056536;28;45387;-60
2022/04/08 06:32:16;;;;;;;;;0.50;0.00;;;;;;;;5061463;28;45270;-61
2022/04/08 06:34:41;;;;;;;;;0.75;0.00;;;;;;;;5077278;27;46292;-61
2022/04/08 06:37:08;;;;;;;;;0.00;0.00;;;;;;;;5073611;27;45414;-62
2022/04/08 06:39:33;;;;;;;;;1.00;1.00;;;;;;;;5073964;27;45605;-62
2022/04/08 06:41:58;;;;;;;;;1.50;1.00;;;;;;;;5072476;28;45533;-62
2022/04/08 06:44:24;;;;;;;;;1.00;0.00;;;;;;;;5073275;28;46751;-63
2022/04/08 06:46:49;;;;;;;;;2.00;1.00;;;;;;;;5053474;28;45394;-63
2022/04/08 06:49:14;;;;;;;;;1.00;1.00;;;;;;;;5070578;27;45273;-63
2022/04/08 06:51:39;;;;;;;;;1.00;1.00;;;;;;;;5073673;27;45332;-63
2022/04/08 06:54:05;;;;;;;;;0.00;0.00;;;;;;;;5072413;27;45806;-63
2022/04/08 06:56:30;;;;;;;;;0.00;0.00;;;;;;;;5072239;28;45384;-63
2022/04/08 06:58:55;;;;;;;;;0.25;0.25;;;;;;;;5074392;27;46341;-62
2022/04/08 07:01:20;;;;;;;;;0.00;0.00;;;;;;;;5073562;28;45411;-63
2022/04/08 07:03:46;;;;;;;;;0.50;0.50;;;;;;;;5077037;28;46345;-62
2022/04/08 07:06:11;;;;;;;;;3.75;1.00;;;;;;;;5077099;27;45294;-62
2022/04/08 07:08:36;;;;;;;;;0.25;0.25;;;;;;;;5076991;27;45527;-64
2022/04/08 07:11:01;;;;;;;;;1.25;1.25;;;;;;;;5077320;28;46137;-64
2022/04/08 07:13:26;;;;;;;;;1.50;1.00;;;;;;;;5075524;27;46504;-64
2022/04/08 07:15:52;;;;;;;;;1.00;1.00;;;;;;;;5076550;27;45575;-64
2022/04/08 07:18:17;;;;;;;;;2.00;1.00;;;;;;;;5076981;27;45288;-64
2022/04/08 07:20:42;;;;;;;;;0.75;0.75;;;;;;;;5077019;27;45452;-63
2022/04/08 07:23:07;;;;;;;;;1.50;1.50;;;;;;;;5078802;27;45897;-63
2022/04/08 07:25:33;;;;;;;;;1.00;1.00;;;;;;;;5075174;28;45331;-63
2022/04/08 07:28:01;;;;;;;;;0.00;0.00;;;;;;;;5075270;28;45364;-63
2022/04/08 07:30:26;;;;;;;;;2.25;1.00;;;;;;;;5076735;27;45535;-63
2022/04/08 07:32:54;;;;;;;;;1.00;1.00;;;;;;;;5075361;28;47310;-63
2022/04/08 07:35:19;;;;;;;;;2.00;1.00;;;;;;;;5077950;27;47434;-62
2022/04/08 07:37:45;;;;;;;;;1.00;1.00;;;;;;;;5075987;28;45328;-63
2022/04/08 07:40:11;;;;;;;;;7.75;3.00;;;;;;;;5076586;27;45300;-62
2022/04/08 07:42:37;;;;;;;;;4.75;2.25;;;;;;;;5075063;27;47684;-62
2022/04/08 07:45:03;;;;;;;;;5.25;4.00;;;;;;;;5059443;28;45541;-62
2022/04/08 07:47:28;;;;;;;;;3.00;3.00;;;;;;;;5077642;27;45435;-62
2022/04/08 07:50:02;;;;;;;;;2.00;2.00;;;;;;;;5074777;28;45694;-61
2022/04/08 07:52:28;;;;;;;;;2.25;1.50;;;;;;;;5074052;27;47006;-61
2022/04/08 07:54:54;;;;;;;;;3.00;2.75;;;;;;;;5075349;27;45429;-60
2022/04/08 07:57:19;;;;;;;;;3.25;3.25;;;;;;;;5076315;27;45539;-60
2022/04/08 07:59:44;;;;;;;;;6.00;3.00;;;;;;;;5075686;27;45818;-60
2022/04/08 08:02:10;;;;;;;;;3.50;2.00;;;;;;;;5078596;27;46577;-60
2022/04/08 08:04:35;;;;;;;;;3.50;3.50;;;;;;;;5074741;28;45899;-60
2022/04/08 08:07:00;;;;;;;;;2.25;2.00;;;;;;;;5076458;27;45515;-60
2022/04/08 08:09:26;;;;;;;;;2.00;2.00;;;;;;;;5076275;27;45511;-60
2022/04/08 08:11:51;;;;;;;;;1.75;1.75;;;;;;;;5073655;28;47399;-61
2022/04/08 08:14:16;;;;;;;;;4.00;2.50;;;;;;;;5075130;28;45615;-61
2022/04/08 08:16:41;;;;;;;;;8.75;7.00;;;;;;;;5076261;28;45407;-60
2022/04/08 08:19:07;;;;;;;;;2.00;2.00;;;;;;;;5075072;27;45365;-61
2022/04/08 08:21:32;;;;;;;;;2.00;2.00;;;;;;;;5075670;27;47113;-63
2022/04/08 08:23:57;;;;;;;;;3.00;2.00;;;;;;;;5075930;27;45399;-61
2022/04/08 08:26:22;;;;;;;;;4.00;4.00;;;;;;;;5075600;28;45384;-61
2022/04/08 08:28:47;;;;;;;;;6.75;3.50;;;;;;;;5075270;28;45392;-61
2022/04/08 08:31:15;;;;;;;;;2.00;2.00;;;;;;;;5073829;27;47452;-61
2022/04/08 08:33:43;;;;;;;;;2.75;2.25;;;;;;;;5073881;27;45430;-61
2022/04/08 08:36:08;;;;;;;;;4.50;4.50;;;;;;;;5074318;28;45368;-60
2022/04/08 08:38:33;;;;;;;;;6.00;5.00;;;;;;;;5075793;27;45373;-61
2022/04/08 08:40:59;;;;;;;;;7.50;6.25;;;;;;;;5077497;27;45936;-61
2022/04/08 08:43:24;;;;;;;;;11.75;7.00;;;;;;;;5074040;27;45246;-61
2022/04/08 08:45:49;;;;;;;;;5.25;5.25;;;;;;;;5075458;27;45329;-60
2022/04/08 08:48:17;;;;;;;;;7.00;7.00;;;;;;;;5075727;28;45405;-61
2022/04/08 08:50:47;;;;;;;;;5.50;5.50;;;;;;;;5058849;28;47563;-61
2022/04/08 08:53:16;;;;;;;;;6.00;3.00;;;;;;;;5073252;27;45549;-60
2022/04/08 08:55:41;;;;;;;;;5.25;3.75;;;;;;;;5075670;27;45490;-61
2022/04/08 08:58:07;;;;;;;;;4.75;4.00;;;;;;;;5073052;27;45411;-60
2022/04/08 09:00:35;;;;;;;;;5.00;5.00;;;;;;;;5074264;27;46199;-61
2022/04/08 09:03:00;;;;;;;;;4.75;3.00;;;;;;;;5075304;27;45693;-61
2022/04/08 09:05:26;;;;;;;;;3.25;3.25;;;;;;;;5074902;28;45368;-61
2022/04/08 09:07:52;;;;;;;;;6.50;4.00;;;;;;;;5074882;27;45467;-60
2022/04/08 09:10:22;;;;;;;;;6.25;4.00;;;;;;;;5074780;27;45824;-60
2022/04/08 09:12:52;;;;;;;;;6.75;4.50;;;;;;;;5073511;27;45278;-61
2022/04/08 09:15:17;;;;;;;;;6.25;4.50;;;;;;;;5075064;27;45443;-60
2022/04/08 09:17:42;;;;;;;;;6.00;6.00;;;;;;;;5075131;27;45505;-60
2022/04/08 09:20:08;;;;;;;;;8.75;5.50;;;;;;;;5075740;27;46666;-60
2022/04/08 09:22:34;;;;;;;;;7.50;5.25;;;;;;;;5073117;28;45550;-60
2022/04/08 09:25:08;;;;;;;;;8.00;7.00;;;;;;;;5073221;27;45376;-61
2022/04/08 09:27:33;;;;;;;;;9.00;7.00;;;;;;;;5074746;27;45275;-60
2022/04/08 09:29:58;;;;;;;;;5.50;5.25;;;;;;;;5072906;27;46098;-60
2022/04/08 09:32:25;;;;;;;;;4.00;4.00;;;;;;;;5075887;28;45332;-60
2022/04/08 09:34:50;;;;;;;;;3.50;3.50;;;;;;;;5074963;28;45294;-61
2022/04/08 09:37:17;;;;;;;;;8.50;8.25;;;;;;;;5073155;28;45463;-61
2022/04/08 09:39:53;;;;;;;;;3.25;3.25;;;;;;;;5072934;28;47853;-61
2022/04/08 09:42:18;;;;;;;;;4.25;3.75;;;;;;;;5074503;27;45373;-61
2022/04/08 09:44:44;;;;;;;;;4.00;3.00;;;;;;;;5073867;27;45395;-61
2022/04/08 09:47:09;;;;;;;;;3.00;3.00;;;;;;;;5076793;28;45324;-61
2022/04/08 09:49:35;;;;;;;;;3.00;3.00;;;;;;;;5073196;27;45579;-61
2022/04/08 09:52:02;;;;;;;;;3.25;1.75;;;;;;;;5072822;27;45484;-61
2022/04/08 09:54:28;;;;;;;;;2.00;2.00;;;;;;;;5074456;27;45355;-61
2022/04/08 09:56:56;;;;;;;;;3.00;3.00;;;;;;;;5074557;27;45236;-61
2022/04/08 09:59:23;;;;;;;;;1.00;1.00;;;;;;;;5075195;27;46166;-61
2022/04/08 10:01:50;;;;;;;;;2.00;1.75;;;;;;;;5073907;28;45399;-61
2022/04/08 10:04:16;;;;;;;;;6.25;2.50;;;;;;;;5072789;28;45259;-60
2022/04/08 10:06:42;;;;;;;;;3.00;2.25;;;;;;;;5074151;27;45448;-60
2022/04/08 10:09:09;;;;;;;;;9.75;9.50;;;;;;;;5074022;27;45711;-60
2022/04/08 10:11:45;;;;;;;;;4.25;3.75;;;;;;;;5074565;27;45403;-61
2022/04/08 10:14:20;;;;;;;;;4.25;4.25;;;;;;;;5075024;28;45409;-63
2022/04/08 10:16:51;;;;;;;;;2.25;2.25;;;;;;;;5076114;28;45615;-61
2022/04/08 10:19:17;;;;;;;;;7.00;5.50;;;;;;;;5070166;28;46994;-61
2022/04/08 10:21:42;;;;;;;;;5.75;5.75;;;;;;;;5071444;27;45381;-62
2022/04/08 10:24:10;;;;;;;;;6.25;2.25;;;;;;;;5073386;27;45505;-63
2022/04/08 10:26:35;;;;;;;;;7.00;5.25;;;;;;;;5068225;27;45405;-63
2022/04/08 10:29:09;;;;;;;;;5.00;3.75;;;;;;;;5084475;27;45450;-62
2022/04/08 10:31:34;;;;;;;;;8.50;7.00;;;;;;;;5065437;27;45409;-63
2022/04/08 10:34:00;;;;;;;;;6.75;6.25;;;;;;;;5079420;27;45574;-63
2022/04/08 10:36:35;;;;;;;;;9.00;7.75;;;;;;;;5084370;27;45471;-64
2022/04/08 10:39:21;;;;;;;;;7.00;6.00;;;;;;;;5070159;27;45611;-63
2022/04/08 10:41:46;;;;;;;;;6.00;6.00;;;;;;;;5120047;27;45354;-63
2022/04/08 10:44:12;;;;;;;;;5.75;5.75;;;;;;;;5082831;27;45401;-61
2022/04/08 10:46:47;;;;;;;;;8.75;8.75;;;;;;;;5079686;27;45650;-63
2022/04/08 10:49:12;;;;;;;;;9.00;8.00;;;;;;;;5072602;27;48942;-61
2022/04/08 10:59:04;;;;;;;;;10.00;7.00;;;;;;;;1563463;27;243073783;-61
2022/04/08 11:07:14;;;;;;;;;3.00;2.00;;;;;;;;174409;28;243074143;-62
2022/04/08 11:09:41;;;;;;;;;1.80;1.80;;;;;;;;4937852;27;3896246;-62
2022/04/08 11:12:07;;;;;;;;;3.75;2.50;;;;;;;;5087886;27;45450;-62
2022/04/08 11:14:32;;;;;;;;;3.25;2.75;;;;;;;;5069225;27;45359;-62
2022/04/08 11:16:57;;;;;;;;;2.00;2.00;;;;;;;;5083914;27;46785;-61
2022/04/08 11:19:23;;;;;;;;;1.00;1.00;;;;;;;;5067284;27;45374;-61
2022/04/08 11:21:48;;;;;;;;;3.00;3.00;;;;;;;;5067019;27;45506;-62
2022/04/08 11:24:15;;;;;;;;;2.75;2.25;;;;;;;;5059251;28;45479;-61
2022/04/08 11:26:41;;;;;;;;;5.75;4.00;;;;;;;;5056278;27;45574;-61
2022/04/08 11:29:10;;;;;;;;;3.00;2.00;;;;;;;;5059381;28;45370;-61
2022/04/08 11:31:36;;;;;;;;;4.00;4.00;;;;;;;;5060068;28;45393;-61
2022/04/08 11:34:01;;;;;;;;;2.00;2.00;;;;;;;;5059966;27;45362;-61
2022/04/08 11:36:27;;;;;;;;;3.00;3.00;;;;;;;;5059457;28;45960;-61
2022/04/08 11:38:52;;;;;;;;;4.75;4.75;;;;;;;;5056571;28;45544;-61
2022/04/08 11:41:20;;;;;;;;;5.00;5.00;;;;;;;;5074792;27;45379;-62
2022/04/08 11:43:46;;;;;;;;;4.75;4.00;;;;;;;;5072410;28;45415;-61
2022/04/08 11:46:15;;;;;;;;;4.00;4.00;;;;;;;;5072698;27;46550;-61
2022/04/08 11:48:40;;;;;;;;;8.00;7.00;;;;;;;;5073706;27;45403;-61
2022/04/08 11:51:06;;;;;;;;;3.75;3.75;;;;;;;;5076440;27;45463;-62
2022/04/08 11:53:40;;;;;;;;;6.00;6.00;;;;;;;;5075310;27;45334;-61
2022/04/08 11:56:07;;;;;;;;;8.75;7.25;;;;;;;;5076950;28;48883;-61
2022/04/08 11:58:32;;;;;;;;;10.25;8.75;;;;;;;;5071217;28;45351;-62
2022/04/08 12:01:01;;;;;;;;;9.50;9.00;;;;;;;;5076221;27;45358;-61
2022/04/08 12:03:30;;;;;;;;;6.75;6.75;;;;;;;;5076279;27;45468;-61
2022/04/08 12:05:56;;;;;;;;;4.75;4.75;;;;;;;;5076138;27;45396;-61
2022/04/08 12:08:21;;;;;;;;;9.00;7.50;;;;;;;;5077047;27;45352;-62
2022/04/08 12:10:51;;;;;;;;;11.50;9.50;;;;;;;;5077336;27;45630;-62
2022/04/08 12:13:19;;;;;;;;;7.75;6.25;;;;;;;;5076325;27;45194;-62
2022/04/08 12:15:46;;;;;;;;;6.75;5.25;;;;;;;;5075659;27;46322;-62
2022/04/08 12:18:11;;;;;;;;;8.00;6.75;;;;;;;;5072004;27;46599;-63
2022/04/08 12:20:38;;;;;;;;;8.00;8.00;;;;;;;;5075307;27;45808;-63
2022/04/08 12:23:04;;;;;;;;;11.50;11.50;;;;;;;;5077092;28;45439;-63
2022/04/08 12:25:30;;;;;;;;;13.75;13.75;;;;;;;;5074180;28;47798;-63
2022/04/08 12:27:56;;;;;;;;;19.00;16.50;;;;;;;;5074223;28;46146;-63
2022/04/08 12:30:31;;;;;;;;;379.75;211.00;;;;;;;;5048987;28;418023;-62
2022/04/08 12:36:04;;;;;;;;;;;;;;;;;;2876159;27;226254400;-61
2022/04/08 12:38:30;;;;;;;;;286.75;155.25;;;;;;;;4732977;27;7481127;-62
2022/04/08 12:40:57;;;;;;;;;146.75;71.50;;;;;;;;5066512;27;184633;-62
2022/04/08 12:43:22;;;;;;;;;35.00;27.25;;;;;;;;4910483;27;1199225;-62
2022/04/08 12:45:49;;;;;;;;;19.75;18.50;;;;;;;;5072224;27;164002;-62
2022/04/08 12:48:14;;;;;;;;;14.75;12.25;;;;;;;;5074191;27;47366;-61
2022/04/08 12:50:39;;;;;;;;;9.00;9.00;;;;;;;;5072337;27;45495;-62
2022/04/08 12:53:05;;;;;;;;;7.00;6.50;;;;;;;;5075615;28;45573;-62
2022/04/08 12:55:30;;;;;;;;;9.00;7.00;;;;;;;;5073148;27;45365;-61
2022/04/08 12:57:56;;;;;;;;;10.00;7.75;;;;;;;;5070983;28;46534;-61
2022/04/08 13:00:23;;;;;;;;;8.50;8.50;;;;;;;;5060863;27;45502;-62
2022/04/08 13:02:48;;;;;;;;;9.50;8.75;;;;;;;;5062909;28;45450;-61
2022/04/08 13:05:14;;;;;;;;;4.50;4.50;;;;;;;;5064399;27;45459;-61
2022/04/08 13:07:39;;;;;;;;;4.00;4.00;;;;;;;;5064932;27;45607;-61
2022/04/08 13:10:05;;;;;;;;;3.00;3.00;;;;;;;;5067231;28;45600;-61
2022/04/08 13:12:31;;;;;;;;;3.00;3.00;;;;;;;;5056657;28;45433;-62
2022/04/08 13:14:56;;;;;;;;;2.00;2.00;;;;;;;;5060558;28;46160;-62
2022/04/08 13:17:22;;;;;;;;;1.25;1.25;;;;;;;;5067440;27;45741;-61
2022/04/08 13:19:47;;;;;;;;;3.00;3.00;;;;;;;;5060918;27;45393;-60
2022/04/08 13:22:12;;;;;;;;;3.00;2.00;;;;;;;;5066659;27;45880;-60
2022/04/08 13:24:38;;;;;;;;;3.00;3.00;;;;;;;;5057788;28;45542;-60
2022/04/08 13:27:03;;;;;;;;;2.00;2.00;;;;;;;;5059162;27;45885;-61
2022/04/08 13:29:29;;;;;;;;;1.25;1.00;;;;;;;;5061100;27;45279;-61
2022/04/08 13:31:54;;;;;;;;;1.00;1.00;;;;;;;;5068135;27;46315;-63
2022/04/08 13:34:20;;;;;;;;;1.00;1.00;;;;;;;;5069099;27;45444;-63
2022/04/08 13:36:45;;;;;;;;;0.00;0.00;;;;;;;;5072350;27;45723;-64
2022/04/08 13:39:10;;;;;;;;;2.00;2.00;;;;;;;;5078980;27;45343;-63
2022/04/08 13:41:36;;;;;;;;;3.75;2.75;;;;;;;;5074350;27;45437;-63
2022/04/08 13:44:01;;;;;;;;;3.00;3.00;;;;;;;;5067475;27;45372;-62
2022/04/08 13:46:26;;;;;;;;;1.25;1.25;;;;;;;;5072337;27;47194;-63
2022/04/08 13:48:53;;;;;;;;;2.00;2.00;;;;;;;;5079263;27;45458;-64
2022/04/08 13:51:19;;;;;;;;;1.00;1.00;;;;;;;;5070955;27;45517;-63
2022/04/08 13:53:44;;;;;;;;;2.00;2.00;;;;;;;;5070493;27;46605;-63
2022/04/08 13:56:09;;;;;;;;;3.75;3.75;;;;;;;;5073094;27;46757;-62
2022/04/08 13:58:35;;;;;;;;;2.75;2.75;;;;;;;;5071521;27;45426;-62
2022/04/08 14:01:00;;;;;;;;;2.75;2.75;;;;;;;;5075278;27;45408;-62
2022/04/08 14:03:26;;;;;;;;;7.50;7.50;;;;;;;;5066142;27;45479;-61
2022/04/08 14:05:51;;;;;;;;;9.50;9.50;;;;;;;;5068586;27;45467;-62
2022/04/08 14:08:17;;;;;;;;;11.75;10.75;;;;;;;;5075302;27;45540;-64
2022/04/08 14:10:42;;;;;;;;;13.00;11.00;;;;;;;;5076240;27;45482;-62
2022/04/08 14:13:07;;;;;;;;;9.25;8.75;;;;;;;;5077818;27;45458;-63
2022/04/08 14:15:33;;;;;;;;;10.75;10.75;;;;;;;;5069759;27;45728;-63
2022/04/08 14:17:58;;;;;;;;;8.75;7.00;;;;;;;;5076636;27;45535;-63
2022/04/08 14:20:24;;;;;;;;;9.00;8.00;;;;;;;;5077208;27;45771;-63
2022/04/08 14:22:49;;;;;;;;;7.50;7.50;;;;;;;;5073601;27;45527;-64
2022/04/08 14:25:14;;;;;;;;;8.75;8.75;;;;;;;;5073849;27;45760;-61
2022/04/08 14:27:39;;;;;;;;;10.50;9.00;;;;;;;;5066612;27;45500;-62
2022/04/08 14:30:06;;;;;;;;;2.75;2.75;;;;;;;;5078513;27;45586;-64
2022/04/08 14:32:36;;;;;;;;;2.00;2.00;;;;;;;;5077367;27;45541;-63
2022/04/08 14:35:02;;;;;;;;;2.50;2.50;;;;;;;;5067982;27;45431;-65
2022/04/08 14:37:27;;;;;;;;;3.50;3.50;;;;;;;;5071611;27;45355;-62
2022/04/08 14:39:52;;;;;;;;;4.00;4.00;;;;;;;;5065716;27;45538;-62
2022/04/08 14:42:17;;;;;;;;;3.50;3.50;;;;;;;;5077881;27;45427;-61
2022/04/08 14:44:43;;;;;;;;;4.50;4.50;;;;;;;;5072889;27;47620;-62
2022/04/08 14:47:08;;;;;;;;;4.25;4.00;;;;;;;;5070594;27;45512;-63
2022/04/08 14:49:33;;;;;;;;;2.50;2.50;;;;;;;;5069629;27;45324;-62